My Meet Scores
Allie Taylor, GymNasti - MyMeetScores.com
Top100 | Top Teams | Upcoming Meets | Completed Meets | Latest | Add Scores | Help| Support | Bookmark and Share

Allie Taylor, GymNasti
Personal Bests
LevelVault BarsBeamFloorAA
39.1008.650 8.5759.10034.250
49.0009.275 9.4509.45036.800
Meet Scores
Date Meet Team Session Level Division Vault Bars Beam Floor AA
2022-03-18 Level 4 & 5 Illinois State Championships Gym Nasti 4 4 Sr 3 9.000 12T 9.250 13T 9.300 13 9.250 4T 36.800 7
2022-03-10 Lucky Invite Gym Nasti A14 4 Middle 8.550 8T 9.150 3 9.450 5T 9.250 9 36.400 6
2022-02-24 Great Western Invitational - Women's GymNasti 5A 4 Pony 8.700 13T 8.975 4T 9.275 5 9.100 3 36.050 4
2022-02-18 Women's Midwest Open 2022 Gym Nasti 1 4 Senior A 8.300 17 8.850 10 9.075 13* 9.200 4 35.425 13T
2022-02-11 SCGA Classic 2022 Gym Nasti SU7 4 Sr A 8.825 6 9.275 3 9.300 6T 9.350 5 36.750 2
2022-01-21 UGA Invitational Gym Nasti B07 4 Jr B 8.050 16 9.075 11T 9.025 9 9.425 2 35.575 13
2022-01-07 St Jude Benefit Meet 2022 GymNasti 1A 4 Sr A 8.700 3T 8.900 3T 8.800 10T 9.175 4 35.575 3
2021-12-10 St. Nick Invite 2021 Gym Nasti 4B 4 SrA 8.550 5 8.900 4 8.900 4 9.450 1 35.800 4
2021-03-12 2021 Illinois Level 4 State Championships U.S. Gymnastics Training Center 4 4 Jr B 8.425 23 8.775 26 8.950 22 8.550 26T 34.700 25
2021-02-26 Kinetic Classic 2021 U.S. Gymnastics Training Center 10 4 Younger 7.550 23 7.750 22 8.050 23 9.025 13T 32.375 22
2021-02-12 Super Girl Invite U.S. Gymnastics Training Center 1 4 Jr B 8.500 5 8.300 8 8.100 10 9.000 5T 33.900 9
2021-01-15 Leenda's Island Adventure U.S. Gymnastics Training Center A13 4 Jr C 8.300 8T 7.850 11 8.500 12 9.000 5 33.650 10
2020-01-24 Uga Invitational U.S. Gymnastics Training Center B3 4 Ch A 8.125 13 7.600 15 8.875 11 8.850 5T 33.450 12
2020-01-17 Ozone Invitational U.S. Gymnastics Training Center 03P 4 Jr B 7.800 6 6.700 9 7.750 8 8.525 5 30.775 8
2020-01-10 Leenda's Island Adventure U.S. Gymnastics Training Center PG5 4 8 & Under 7.300 9 7.050 8 7.950 9 8.600 9 30.900 9
2019-12-13 2019 St Nick U.S. Gymnastics Training Center 6B 4 JrA 7.550 15 7.400 14 8.400 12 8.600 15T 31.950 14
2019-01-25 UGA Invitational U.S. Gymnastics Training Center B10 3 Ch B 8.925 11 7.700 12 7.750 14 9.100 7 33.475 14
2019-01-11 Lake Geneva Gymnastics Vacation Classic U.S. Gymnastics Training Center 1 3 Children 9.100 5 6.900 12 6.700 9 8.350 9 31.050 10
2018-12-14 Hawaiian Pineapple Classic U.S. Gymnastics Training Center 2A 3 Ages7U 8.675 17T 8.650 3 8.575 4 8.350 9 34.250 5
2018-11-17 Paul Hamm Thanksgiving Class WOMENS U.S. Gymnastics Training Center 1 3 Younger 8.500 15T 7.400 15 8.150 14 8.375 11 32.425 13
2018-11-03 Phyllis Matras Invite U.S. Gymnastics Training Center All 3 All 8.150 27 8.000 18 5.900 29 8.350 20T 30.400 25
Get your scores on
a t-shirt, pin, or hoodie